Time;durP1;ratioP1;P1;durP2;ratioP2;P2;SDS_P1;SDS_P2;PMS_P1;PMS_P2;Temp;Humidity;BMP_temperature;BMP_pressure;BME280_temperature;BME280_humidity;BME280_pressure;Samples;Min_cycle;Max_cycle;Signal;HPM_P1;HPM_P2
2024/01/03 00:01:42;;;;;;;;;;;;;;;;;;5072387;28;20000;-83
2024/01/03 00:04:08;;;;;;;;;;;;;;;;;;5068094;28;19912;-82
2024/01/03 00:06:34;;;;;;;;;;;;;;;;;;5072077;28;19962;-83
2024/01/03 00:09:00;;;;;;;;;;;;;;;;;;5068082;28;19920;-86
2024/01/03 00:11:26;;;;;;;;;;;;;;;;;;5070781;28;19915;-82
2024/01/03 00:13:52;;;;;;;;;;;;;;;;;;5064863;28;19917;-82
2024/01/03 00:16:20;;;;;;;;;;;;;;;;;;5054358;28;20008;-82
2024/01/03 00:18:46;;;;;;;;;;;;;;;;;;5064413;28;19909;-81
2024/01/03 00:21:15;;;;;;;;;;;;;;;;;;5071035;28;19995;-83
2024/01/03 00:23:41;;;;;;;;;;;;;;;;;;5057286;28;20268;-82
2024/01/03 00:26:07;;;;;;;;;;;;;;;;;;5070293;28;20428;-82
2024/01/03 00:28:32;;;;;;;;;;;;;;;;;;5070547;28;19916;-83
2024/01/03 00:30:58;;;;;;;;;;;;;;;;;;5063573;28;19970;-82
2024/01/03 00:33:36;;;;;;;;;;;;;;;;;;5055745;28;19908;-83
2024/01/03 00:36:02;;;;;;;;;;;;;;;;;;5069926;28;20041;-81
2024/01/03 00:38:37;;;;;;;;;;;;;;;;;;5067237;28;19908;-84
2024/01/03 00:41:03;;;;;;;;;;;;;;;;;;5075236;28;19916;-82
2024/01/03 00:43:29;;;;;;;;;;;;;;;;;;5084120;28;19919;-81
2024/01/03 00:45:55;;;;;;;;;;;;;;;;;;5066161;28;19920;-83
2024/01/03 00:48:21;;;;;;;;;;;;;;;;;;5070370;28;19912;-83
2024/01/03 00:50:52;;;;;;;;;;;;;;;;;;5074220;28;20330;-82
2024/01/03 00:53:18;;;;;;;;;;;;;;;;;;5072178;28;19913;-81
2024/01/03 00:55:44;;;;;;;;;;;;;;;;;;5069541;28;19927;-81
2024/01/03 00:58:10;;;;;;;;;;;;;;;;;;5071772;28;19916;-81
2024/01/03 01:00:36;;;;;;;;;;;;;;;;;;5067180;28;19998;-80
2024/01/03 01:03:02;;;;;;;;;;;;;;;;;;5068289;28;19912;-81
2024/01/03 01:05:28;;;;;;;;;;;;;;;;;;5071784;28;19908;-81
2024/01/03 01:07:54;;;;;;;;;;;;;;;;;;5067554;28;19916;-81
2024/01/03 01:10:20;;;;;;;;;;;;;;;;;;5059159;28;20021;-80
2024/01/03 01:12:45;;;;;;;;;;;;;;;;;;5069854;28;19916;-81
2024/01/03 01:15:11;;;;;;;;;;;;;;;;;;5069982;28;20433;-81
2024/01/03 01:17:37;;;;;;;;;;;;;;;;;;5069501;28;20287;-81
2024/01/03 01:20:03;;;;;;;;;;;;;;;;;;5070126;28;19912;-81
2024/01/03 01:22:29;;;;;;;;;;;;;;;;;;5068480;28;19915;-81
2024/01/03 01:24:55;;;;;;;;;;;;;;;;;;5076242;28;19912;-80
2024/01/03 01:27:21;;;;;;;;;;;;;;;;;;5069926;28;20522;-80
2024/01/03 01:29:47;;;;;;;;;;;;;;;;;;5069445;28;20350;-80
2024/01/03 01:32:13;;;;;;;;;;;;;;;;;;5069342;28;20324;-81
2024/01/03 01:34:38;;;;;;;;;;;;;;;;;;5081884;28;19978;-81
2024/01/03 01:37:04;;;;;;;;;;;;;;;;;;5066584;28;20397;-80
2024/01/03 01:39:30;;;;;;;;;;;;;;;;;;5065289;28;20275;-80
2024/01/03 01:41:56;;;;;;;;;;;;;;;;;;5062567;28;19950;-81
2024/01/03 01:44:22;;;;;;;;;;;;;;;;;;5074571;28;19969;-81
2024/01/03 01:46:47;;;;;;;;;;;;;;;;;;5067561;28;19916;-81
2024/01/03 01:49:13;;;;;;;;;;;;;;;;;;5067940;28;19919;-82
2024/01/03 01:51:39;;;;;;;;;;;;;;;;;;5080054;28;19913;-82
2024/01/03 01:54:05;;;;;;;;;;;;;;;;;;5067979;28;19912;-81
2024/01/03 01:56:31;;;;;;;;;;;;;;;;;;5075003;28;19916;-81
2024/01/03 01:58:57;;;;;;;;;;;;;;;;;;5071716;28;19951;-82
2024/01/03 02:01:23;;;;;;;;;;;;;;;;;;5069410;28;20006;-82
2024/01/03 02:03:49;;;;;;;;;;;;;;;;;;5077774;28;20338;-81
2024/01/03 02:06:15;;;;;;;;;;;;;;;;;;5070688;28;19951;-82
2024/01/03 02:08:41;;;;;;;;;;;;;;;;;;5066034;28;19924;-82
2024/01/03 02:11:07;;;;;;;;;;;;;;;;;;5067313;28;19934;-82
2024/01/03 02:13:33;;;;;;;;;;;;;;;;;;5066428;28;20390;-82
2024/01/03 02:15:59;;;;;;;;;;;;;;;;;;5067431;28;20004;-81
2024/01/03 02:18:25;;;;;;;;;;;;;;;;;;5066870;28;20432;-82
2024/01/03 02:20:51;;;;;;;;;;;;;;;;;;5059226;28;20399;-82
2024/01/03 02:23:17;;;;;;;;;;;;;;;;;;5068803;28;20342;-82
2024/01/03 02:25:42;;;;;;;;;;;;;;;;;;5066639;28;20283;-81
2024/01/03 02:28:09;;;;;;;;;;;;;;;;;;5060123;28;19913;-81
2024/01/03 02:30:35;;;;;;;;;;;;;;;;;;5061629;28;20382;-82
2024/01/03 02:33:01;;;;;;;;;;;;;;;;;;5068122;28;19916;-81
2024/01/03 02:35:27;;;;;;;;;;;;;;;;;;5066513;28;19965;-81
2024/01/03 02:37:53;;;;;;;;;;;;;;;;;;5059865;28;19916;-83
2024/01/03 02:40:19;;;;;;;;;;;;;;;;;;5068161;28;19914;-82
2024/01/03 02:42:45;;;;;;;;;;;;;;;;;;5064331;28;19912;-82
2024/01/03 02:45:11;;;;;;;;;;;;;;;;;;5073863;28;20051;-81
2024/01/03 02:47:37;;;;;;;;;;;;;;;;;;5073918;28;19913;-82
2024/01/03 02:50:02;;;;;;;;;;;;;;;;;;5067172;28;19917;-82
2024/01/03 02:52:28;;;;;;;;;;;;;;;;;;5067165;28;20457;-81
2024/01/03 02:54:54;;;;;;;;;;;;;;;;;;5078551;28;20286;-81
2024/01/03 02:57:20;;;;;;;;;;;;;;;;;;5066372;28;20004;-80
2024/01/03 02:59:46;;;;;;;;;;;;;;;;;;5081633;28;19916;-82
2024/01/03 03:02:12;;;;;;;;;;;;;;;;;;5070694;28;19923;-80
2024/01/03 03:04:37;;;;;;;;;;;;;;;;;;5069666;28;20007;-82
2024/01/03 03:07:03;;;;;;;;;;;;;;;;;;5065479;28;19916;-81
2024/01/03 03:09:29;;;;;;;;;;;;;;;;;;5057659;28;19921;-83
2024/01/03 03:11:55;;;;;;;;;;;;;;;;;;5070899;28;19958;-81
2024/01/03 03:14:22;;;;;;;;;;;;;;;;;;5068709;28;19920;-81
2024/01/03 03:16:47;;;;;;;;;;;;;;;;;;5071519;28;19916;-82
2024/01/03 03:19:13;;;;;;;;;;;;;;;;;;5069097;28;20393;-82
2024/01/03 03:21:39;;;;;;;;;;;;;;;;;;5066978;28;19916;-81
2024/01/03 03:24:05;;;;;;;;;;;;;;;;;;5065545;28;19916;-81
2024/01/03 03:26:31;;;;;;;;;;;;;;;;;;5070633;28;19920;-81
2024/01/03 03:28:57;;;;;;;;;;;;;;;;;;5067635;28;19928;-81
2024/01/03 03:31:23;;;;;;;;;;;;;;;;;;5070806;28;19916;-82
2024/01/03 03:33:49;;;;;;;;;;;;;;;;;;5071606;28;19966;-81
2024/01/03 03:36:15;;;;;;;;;;;;;;;;;;5073337;28;19913;-81
2024/01/03 03:38:41;;;;;;;;;;;;;;;;;;5070287;28;19920;-81
2024/01/03 03:41:06;;;;;;;;;;;;;;;;;;5080540;28;20397;-81
2024/01/03 03:43:32;;;;;;;;;;;;;;;;;;5075174;28;19936;-81
2024/01/03 03:45:58;;;;;;;;;;;;;;;;;;5074707;28;20003;-81
2024/01/03 03:48:24;;;;;;;;;;;;;;;;;;5075642;28;19920;-83
2024/01/03 03:50:50;;;;;;;;;;;;;;;;;;5072695;28;19924;-82
2024/01/03 03:53:16;;;;;;;;;;;;;;;;;;5073764;28;19919;-81
2024/01/03 03:55:42;;;;;;;;;;;;;;;;;;5059541;28;19912;-81
2024/01/03 03:58:08;;;;;;;;;;;;;;;;;;5066593;28;19913;-80
2024/01/03 04:00:34;;;;;;;;;;;;;;;;;;5067682;28;19923;-81
2024/01/03 04:03:00;;;;;;;;;;;;;;;;;;5067049;28;19919;-81
2024/01/03 04:05:26;;;;;;;;;;;;;;;;;;5070341;28;19916;-82
2024/01/03 04:07:51;;;;;;;;;;;;;;;;;;5059081;28;20501;-82
2024/01/03 04:10:17;;;;;;;;;;;;;;;;;;5065552;28;20344;-81
2024/01/03 04:12:43;;;;;;;;;;;;;;;;;;5062135;28;19920;-82
2024/01/03 04:15:09;;;;;;;;;;;;;;;;;;5059251;28;19919;-82
2024/01/03 04:17:35;;;;;;;;;;;;;;;;;;5066235;28;19912;-81
2024/01/03 04:20:01;;;;;;;;;;;;;;;;;;5068531;28;19939;-81
2024/01/03 04:22:26;;;;;;;;;;;;;;;;;;5067922;28;19919;-81
2024/01/03 04:24:52;;;;;;;;;;;;;;;;;;5063354;28;19940;-81
2024/01/03 04:27:18;;;;;;;;;;;;;;;;;;5063384;28;19913;-82
2024/01/03 04:29:44;;;;;;;;;;;;;;;;;;5064639;28;19925;-82
2024/01/03 04:32:10;;;;;;;;;;;;;;;;;;5064090;28;19913;-82
2024/01/03 04:34:39;;;;;;;;;;;;;;;;;;5066892;28;19982;-81
2024/01/03 04:37:05;;;;;;;;;;;;;;;;;;5075366;28;20272;-83
2024/01/03 04:39:31;;;;;;;;;;;;;;;;;;5070294;28;19919;-82
2024/01/03 04:41:57;;;;;;;;;;;;;;;;;;5071229;28;19951;-82
2024/01/03 04:44:22;;;;;;;;;;;;;;;;;;5073294;28;20484;-81
2024/01/03 04:46:48;;;;;;;;;;;;;;;;;;5071877;28;19913;-81
2024/01/03 04:49:14;;;;;;;;;;;;;;;;;;5070439;28;19992;-81
2024/01/03 04:51:40;;;;;;;;;;;;;;;;;;5069578;28;19912;-81
2024/01/03 04:54:06;;;;;;;;;;;;;;;;;;5069710;28;19952;-81
2024/01/03 04:56:33;;;;;;;;;;;;;;;;;;5078441;28;19966;-81
2024/01/03 04:58:59;;;;;;;;;;;;;;;;;;5071388;28;19916;-82
2024/01/03 05:01:25;;;;;;;;;;;;;;;;;;5070863;28;19947;-81
2024/01/03 05:03:51;;;;;;;;;;;;;;;;;;5071886;28;20374;-81
2024/01/03 05:06:17;;;;;;;;;;;;;;;;;;5068038;28;19966;-82
2024/01/03 05:08:42;;;;;;;;;;;;;;;;;;5067558;28;19920;-81
2024/01/03 05:11:10;;;;;;;;;;;;;;;;;;5068942;28;19912;-82
2024/01/03 05:13:36;;;;;;;;;;;;;;;;;;5064579;28;19913;-82
2024/01/03 05:16:02;;;;;;;;;;;;;;;;;;5065780;28;20019;-80
2024/01/03 05:18:27;;;;;;;;;;;;;;;;;;5070461;28;19924;-82
2024/01/03 05:20:53;;;;;;;;;;;;;;;;;;5068022;28;19920;-81
2024/01/03 05:23:19;;;;;;;;;;;;;;;;;;5067548;28;20358;-81
2024/01/03 05:25:47;;;;;;;;;;;;;;;;;;5063630;28;19916;-81
2024/01/03 05:28:13;;;;;;;;;;;;;;;;;;5062778;28;19916;-81
2024/01/03 05:30:40;;;;;;;;;;;;;;;;;;5064756;28;19912;-81
2024/01/03 05:33:06;;;;;;;;;;;;;;;;;;5069683;28;20116;-81
2024/01/03 05:35:32;;;;;;;;;;;;;;;;;;5069446;28;19920;-81
2024/01/03 05:37:58;;;;;;;;;;;;;;;;;;5068348;28;20371;-81
2024/01/03 05:40:24;;;;;;;;;;;;;;;;;;5067968;28;19939;-81
2024/01/03 05:42:50;;;;;;;;;;;;;;;;;;5076178;28;20012;-81
2024/01/03 05:45:16;;;;;;;;;;;;;;;;;;5067756;28;19912;-81
2024/01/03 05:47:42;;;;;;;;;;;;;;;;;;5067834;28;19931;-82
2024/01/03 05:50:11;;;;;;;;;;;;;;;;;;5068627;28;19927;-80
2024/01/03 05:52:37;;;;;;;;;;;;;;;;;;5076558;28;19918;-82
2024/01/03 05:55:02;;;;;;;;;;;;;;;;;;5066594;28;19920;-81
2024/01/03 05:57:28;;;;;;;;;;;;;;;;;;5070787;28;19913;-81
2024/01/03 05:59:54;;;;;;;;;;;;;;;;;;5072444;28;19919;-81
2024/01/03 06:02:20;;;;;;;;;;;;;;;;;;5071745;28;19913;-81
2024/01/03 06:04:47;;;;;;;;;;;;;;;;;;5069481;28;20011;-81
2024/01/03 06:07:13;;;;;;;;;;;;;;;;;;5070540;28;19913;-82
2024/01/03 06:09:39;;;;;;;;;;;;;;;;;;5069563;28;20341;-82
2024/01/03 06:12:05;;;;;;;;;;;;;;;;;;5070487;28;19917;-81
2024/01/03 06:14:31;;;;;;;;;;;;;;;;;;5074815;28;19917;-81
2024/01/03 06:16:57;;;;;;;;;;;;;;;;;;5073893;28;19912;-82
2024/01/03 06:19:23;;;;;;;;;;;;;;;;;;5075971;28;19963;-81
2024/01/03 06:21:48;;;;;;;;;;;;;;;;;;5069761;28;19913;-81
2024/01/03 06:24:14;;;;;;;;;;;;;;;;;;5064390;28;19913;-82
2024/01/03 06:26:40;;;;;;;;;;;;;;;;;;5070001;28;19957;-81
2024/01/03 06:29:06;;;;;;;;;;;;;;;;;;5065023;28;20371;-82
2024/01/03 06:31:32;;;;;;;;;;;;;;;;;;5058710;28;19996;-81
2024/01/03 06:33:58;;;;;;;;;;;;;;;;;;5065394;28;19923;-82
2024/01/03 06:36:23;;;;;;;;;;;;;;;;;;5068960;28;20498;-81
2024/01/03 06:38:50;;;;;;;;;;;;;;;;;;5068266;28;20385;-80
2024/01/03 06:41:16;;;;;;;;;;;;;;;;;;5069947;28;19920;-81
2024/01/03 06:43:42;;;;;;;;;;;;;;;;;;5065998;28;19912;-80
2024/01/03 06:46:07;;;;;;;;;;;;;;;;;;5071490;28;20030;-81
2024/01/03 06:48:33;;;;;;;;;;;;;;;;;;5067240;28;20264;-81
2024/01/03 06:51:02;;;;;;;;;;;;;;;;;;5068484;28;20018;-81
2024/01/03 06:53:28;;;;;;;;;;;;;;;;;;5069511;28;19969;-81
2024/01/03 06:55:53;;;;;;;;;;;;;;;;;;5069051;28;19920;-82
2024/01/03 06:58:19;;;;;;;;;;;;;;;;;;5075743;28;19920;-80
2024/01/03 07:00:45;;;;;;;;;;;;;;;;;;5067073;28;19924;-81
2024/01/03 07:03:11;;;;;;;;;;;;;;;;;;5064857;28;19916;-82
2024/01/03 07:05:37;;;;;;;;;;;;;;;;;;5066257;28;20413;-81
2024/01/03 07:08:05;;;;;;;;;;;;;;;;;;5074474;28;19917;-82
2024/01/03 07:10:31;;;;;;;;;;;;;;;;;;5081604;28;19916;-81
2024/01/03 07:12:57;;;;;;;;;;;;;;;;;;5082144;28;19966;-82
2024/01/03 07:15:22;;;;;;;;;;;;;;;;;;5076922;28;19925;-81
2024/01/03 07:17:48;;;;;;;;;;;;;;;;;;5070458;28;20007;-81
2024/01/03 07:20:14;;;;;;;;;;;;;;;;;;5072865;28;19917;-82
2024/01/03 07:22:40;;;;;;;;;;;;;;;;;;5072514;28;19958;-82
2024/01/03 07:25:06;;;;;;;;;;;;;;;;;;5072165;28;19912;-81
2024/01/03 07:27:32;;;;;;;;;;;;;;;;;;5074096;28;19946;-81
2024/01/03 07:29:58;;;;;;;;;;;;;;;;;;5082283;28;20633;-81
2024/01/03 07:32:24;;;;;;;;;;;;;;;;;;5079953;28;19944;-81
2024/01/03 07:34:50;;;;;;;;;;;;;;;;;;5080211;28;20006;-81
2024/01/03 07:37:15;;;;;;;;;;;;;;;;;;5076670;28;19923;-81
2024/01/03 07:39:41;;;;;;;;;;;;;;;;;;5072170;28;20282;-81
2024/01/03 07:42:07;;;;;;;;;;;;;;;;;;5076256;28;19987;-80
2024/01/03 07:44:38;;;;;;;;;;;;;;;;;;5071512;28;19920;-80
2024/01/03 07:47:03;;;;;;;;;;;;;;;;;;5079273;28;19920;-80
2024/01/03 07:49:29;;;;;;;;;;;;;;;;;;5073861;28;20278;-81
2024/01/03 07:51:55;;;;;;;;;;;;;;;;;;5071013;28;19952;-80
2024/01/03 07:54:21;;;;;;;;;;;;;;;;;;5067436;28;19913;-81
2024/01/03 07:56:47;;;;;;;;;;;;;;;;;;5077443;28;19923;-81
2024/01/03 07:59:13;;;;;;;;;;;;;;;;;;5075352;28;19913;-81
2024/01/03 08:01:38;;;;;;;;;;;;;;;;;;5073117;28;19920;-80
2024/01/03 08:04:05;;;;;;;;;;;;;;;;;;5070493;28;19913;-81
2024/01/03 08:06:31;;;;;;;;;;;;;;;;;;5070637;28;19920;-81
2024/01/03 08:08:57;;;;;;;;;;;;;;;;;;5072109;28;19920;-81
2024/01/03 08:11:23;;;;;;;;;;;;;;;;;;5071510;28;19908;-81
2024/01/03 08:13:49;;;;;;;;;;;;;;;;;;5069838;28;19919;-81
2024/01/03 08:16:15;;;;;;;;;;;;;;;;;;5075451;28;20341;-81
2024/01/03 08:18:43;;;;;;;;;;;;;;;;;;5074387;28;20031;-81
2024/01/03 08:21:08;;;;;;;;;;;;;;;;;;5074975;28;19955;-80
2024/01/03 08:23:34;;;;;;;;;;;;;;;;;;5081459;28;19946;-81
2024/01/03 08:26:00;;;;;;;;;;;;;;;;;;5071226;28;19917;-81
2024/01/03 08:28:26;;;;;;;;;;;;;;;;;;5067001;28;19966;-81
2024/01/03 08:30:52;;;;;;;;;;;;;;;;;;5073468;28;20006;-81
2024/01/03 08:33:18;;;;;;;;;;;;;;;;;;5070572;28;21816;-82
2024/01/03 08:35:44;;;;;;;;;;;;;;;;;;5072998;28;20335;-82
2024/01/03 08:38:09;;;;;;;;;;;;;;;;;;5072014;28;19916;-81
2024/01/03 08:40:35;;;;;;;;;;;;;;;;;;5069918;28;20568;-81
2024/01/03 08:43:01;;;;;;;;;;;;;;;;;;5070155;28;20295;-81
2024/01/03 08:45:27;;;;;;;;;;;;;;;;;;5068860;28;19981;-81
2024/01/03 08:47:53;;;;;;;;;;;;;;;;;;5070525;28;20275;-81
2024/01/03 08:50:19;;;;;;;;;;;;;;;;;;5069457;28;19924;-80
2024/01/03 08:52:45;;;;;;;;;;;;;;;;;;5071385;28;20366;-80
2024/01/03 08:55:11;;;;;;;;;;;;;;;;;;5073891;28;20461;-81
2024/01/03 08:57:37;;;;;;;;;;;;;;;;;;5068782;28;19956;-82
2024/01/03 09:00:03;;;;;;;;;;;;;;;;;;5073723;28;20003;-82
2024/01/03 09:02:29;;;;;;;;;;;;;;;;;;5065166;28;19966;-83
2024/01/03 09:04:55;;;;;;;;;;;;;;;;;;5069350;28;19912;-81
2024/01/03 09:07:21;;;;;;;;;;;;;;;;;;5071152;28;19919;-81
2024/01/03 09:09:47;;;;;;;;;;;;;;;;;;5075327;28;19976;-80
2024/01/03 09:12:13;;;;;;;;;;;;;;;;;;5069629;28;19912;-79
2024/01/03 09:14:38;;;;;;;;;;;;;;;;;;5076221;28;20370;-81
2024/01/03 09:17:04;;;;;;;;;;;;;;;;;;5074705;28;19948;-79
2024/01/03 09:19:30;;;;;;;;;;;;;;;;;;5069638;28;20347;-78
2024/01/03 09:21:59;;;;;;;;;;;;;;;;;;5070440;28;19919;-79
2024/01/03 09:24:27;;;;;;;;;;;;;;;;;;5068175;28;20501;-79
2024/01/03 09:26:52;;;;;;;;;;;;;;;;;;5067274;28;19913;-82
2024/01/03 09:29:19;;;;;;;;;;;;;;;;;;5065330;28;20333;-79
2024/01/03 09:31:44;;;;;;;;;;;;;;;;;;5063814;28;19927;-79
2024/01/03 09:34:10;;;;;;;;;;;;;;;;;;5058461;28;20012;-79
2024/01/03 09:36:36;;;;;;;;;;;;;;;;;;5066763;28;20370;-80
2024/01/03 09:39:02;;;;;;;;;;;;;;;;;;5068551;28;19917;-80
2024/01/03 09:41:28;;;;;;;;;;;;;;;;;;5068118;28;19916;-81
2024/01/03 09:43:55;;;;;;;;;;;;;;;;;;5057190;28;19951;-81
2024/01/03 09:46:21;;;;;;;;;;;;;;;;;;5077589;28;20405;-80
2024/01/03 09:48:48;;;;;;;;;;;;;;;;;;5069103;28;19917;-81
2024/01/03 09:51:14;;;;;;;;;;;;;;;;;;5074914;28;19917;-86
2024/01/03 09:53:40;;;;;;;;;;;;;;;;;;5066760;28;19932;-82
2024/01/03 09:56:06;;;;;;;;;;;;;;;;;;5068568;28;20369;-85
2024/01/03 09:58:32;;;;;;;;;;;;;;;;;;5073834;28;19913;-87
2024/01/03 10:00:58;;;;;;;;;;;;;;;;;;5071475;28;20039;-87
2024/01/03 10:03:23;;;;;;;;;;;;;;;;;;5070167;28;19912;-88
2024/01/03 10:05:49;;;;;;;;;;;;;;;;;;5066813;28;19912;-87
2024/01/03 10:08:16;;;;;;;;;;;;;;;;;;5069429;28;19960;-88
2024/01/03 10:10:44;;;;;;;;;;;;;;;;;;5070641;28;19913;-85
2024/01/03 10:13:10;;;;;;;;;;;;;;;;;;5067811;28;20397;-86
2024/01/03 10:15:36;;;;;;;;;;;;;;;;;;5067015;28;19920;-87
2024/01/03 10:18:01;;;;;;;;;;;;;;;;;;5061836;28;20286;-87
2024/01/03 10:20:27;;;;;;;;;;;;;;;;;;5072530;28;20003;-86
2024/01/03 10:22:53;;;;;;;;;;;;;;;;;;5067977;28;20398;-86
2024/01/03 10:25:19;;;;;;;;;;;;;;;;;;5071619;28;19919;-86
2024/01/03 10:27:45;;;;;;;;;;;;;;;;;;5065228;28;19912;-82
2024/01/03 10:30:11;;;;;;;;;;;;;;;;;;5066101;28;19938;-86
2024/01/03 10:32:36;;;;;;;;;;;;;;;;;;5074998;28;19912;-86
2024/01/03 10:35:02;;;;;;;;;;;;;;;;;;5064594;28;20393;-85
2024/01/03 10:37:28;;;;;;;;;;;;;;;;;;5068152;28;19916;-87
2024/01/03 10:39:54;;;;;;;;;;;;;;;;;;5068070;28;19927;-84
2024/01/03 10:42:20;;;;;;;;;;;;;;;;;;5073454;28;19912;-85
2024/01/03 10:44:46;;;;;;;;;;;;;;;;;;5068703;28;19960;-87
2024/01/03 10:47:11;;;;;;;;;;;;;;;;;;5077616;28;19978;-85
2024/01/03 10:49:37;;;;;;;;;;;;;;;;;;5087762;28;19916;-85
2024/01/03 10:52:03;;;;;;;;;;;;;;;;;;5073129;28;20008;-87
2024/01/03 10:54:29;;;;;;;;;;;;;;;;;;5073065;28;19912;-87
2024/01/03 10:56:55;;;;;;;;;;;;;;;;;;5068845;28;19951;-87
2024/01/03 10:59:21;;;;;;;;;;;;;;;;;;5064970;28;19939;-86
2024/01/03 11:01:47;;;;;;;;;;;;;;;;;;5064892;28;19924;-82
2024/01/03 11:04:13;;;;;;;;;;;;;;;;;;5085790;28;19912;-80
2024/01/03 11:06:39;;;;;;;;;;;;;;;;;;5070720;28;19912;-84
2024/01/03 11:09:05;;;;;;;;;;;;;;;;;;5063505;28;20294;-80
2024/01/03 11:11:31;;;;;;;;;;;;;;;;;;5068684;28;19916;-86
2024/01/03 11:13:57;;;;;;;;;;;;;;;;;;5068132;28;20263;-84
2024/01/03 11:16:23;;;;;;;;;;;;;;;;;;5065481;28;19916;-83
2024/01/03 11:18:50;;;;;;;;;;;;;;;;;;5066144;28;19965;-82
2024/01/03 11:21:16;;;;;;;;;;;;;;;;;;5070712;28;19912;-84
2024/01/03 11:23:41;;;;;;;;;;;;;;;;;;5066864;28;19920;-83
2024/01/03 11:26:07;;;;;;;;;;;;;;;;;;5068001;28;19924;-86
2024/01/03 11:28:33;;;;;;;;;;;;;;;;;;5068621;28;19912;-83
2024/01/03 11:30:59;;;;;;;;;;;;;;;;;;5061107;28;19916;-83
2024/01/03 11:33:25;;;;;;;;;;;;;;;;;;5066380;28;20141;-84
2024/01/03 11:35:51;;;;;;;;;;;;;;;;;;5069434;28;19912;-83
2024/01/03 11:38:17;;;;;;;;;;;;;;;;;;5070408;28;19912;-84
2024/01/03 11:40:43;;;;;;;;;;;;;;;;;;5069295;28;19921;-83
2024/01/03 11:43:09;;;;;;;;;;;;;;;;;;5069772;28;19920;-84
2024/01/03 11:45:35;;;;;;;;;;;;;;;;;;5068854;28;19921;-84
2024/01/03 11:48:00;;;;;;;;;;;;;;;;;;5065358;28;20008;-84
2024/01/03 11:50:26;;;;;;;;;;;;;;;;;;5070202;28;19923;-84
2024/01/03 11:52:52;;;;;;;;;;;;;;;;;;5067540;28;19921;-83
2024/01/03 11:55:18;;;;;;;;;;;;;;;;;;5068808;28;20350;-82
2024/01/03 11:57:44;;;;;;;;;;;;;;;;;;5064457;28;19939;-83
2024/01/03 12:00:10;;;;;;;;;;;;;;;;;;5064139;28;19923;-84
2024/01/03 12:02:36;;;;;;;;;;;;;;;;;;5066339;28;20429;-83
2024/01/03 12:05:02;;;;;;;;;;;;;;;;;;5066306;28;19920;-82
2024/01/03 12:07:28;;;;;;;;;;;;;;;;;;5065264;28;20015;-81
2024/01/03 12:09:53;;;;;;;;;;;;;;;;;;5065922;28;20023;-85
2024/01/03 12:12:19;;;;;;;;;;;;;;;;;;5068575;28;19912;-78
2024/01/03 12:14:45;;;;;;;;;;;;;;;;;;5061068;28;19913;-78
2024/01/03 12:17:11;;;;;;;;;;;;;;;;;;5063873;28;19912;-79
2024/01/03 12:19:37;;;;;;;;;;;;;;;;;;5059820;28;20567;-79
2024/01/03 12:22:03;;;;;;;;;;;;;;;;;;5053796;28;20979;-80
2024/01/03 12:24:28;;;;;;;;;;;;;;;;;;5068599;28;19935;-80
2024/01/03 12:26:54;;;;;;;;;;;;;;;;;;5065666;28;20457;-79
2024/01/03 12:29:20;;;;;;;;;;;;;;;;;;5067710;28;20298;-79
2024/01/03 12:31:46;;;;;;;;;;;;;;;;;;5062150;28;19947;-79
2024/01/03 12:34:12;;;;;;;;;;;;;;;;;;5052481;28;19928;-79
2024/01/03 12:36:38;;;;;;;;;;;;;;;;;;5071288;28;19912;-78
2024/01/03 12:39:04;;;;;;;;;;;;;;;;;;5068351;28;19912;-78
2024/01/03 12:41:30;;;;;;;;;;;;;;;;;;5069474;28;19913;-78
2024/01/03 12:43:59;;;;;;;;;;;;;;;;;;5070582;28;19959;-79
2024/01/03 12:46:25;;;;;;;;;;;;;;;;;;5068310;28;19908;-79
2024/01/03 12:48:51;;;;;;;;;;;;;;;;;;5068438;28;19923;-80
2024/01/03 12:51:16;;;;;;;;;;;;;;;;;;5070363;28;19912;-81
2024/01/03 12:53:42;;;;;;;;;;;;;;;;;;5070174;28;19955;-79
2024/01/03 12:56:08;;;;;;;;;;;;;;;;;;5067943;28;19913;-79
2024/01/03 12:58:34;;;;;;;;;;;;;;;;;;5069264;28;19924;-80
2024/01/03 13:01:00;;;;;;;;;;;;;;;;;;5068865;28;20012;-80
2024/01/03 13:03:26;;;;;;;;;;;;;;;;;;5070279;28;19913;-80
2024/01/03 13:05:51;;;;;;;;;;;;;;;;;;5070322;28;19959;-80
2024/01/03 13:08:17;;;;;;;;;;;;;;;;;;5069478;28;19916;-79
2024/01/03 13:10:44;;;;;;;;;;;;;;;;;;5069488;28;19916;-79
2024/01/03 13:13:10;;;;;;;;;;;;;;;;;;5068662;28;19924;-80
2024/01/03 13:15:36;;;;;;;;;;;;;;;;;;5069445;28;20567;-80
2024/01/03 13:18:01;;;;;;;;;;;;;;;;;;5069237;28;19926;-79
2024/01/03 13:20:27;;;;;;;;;;;;;;;;;;5069130;28;19920;-80
2024/01/03 13:22:53;;;;;;;;;;;;;;;;;;5069112;28;19912;-79
2024/01/03 13:25:19;;;;;;;;;;;;;;;;;;5069119;28;19913;-79
2024/01/03 13:27:45;;;;;;;;;;;;;;;;;;5068991;28;19973;-79
2024/01/03 13:30:11;;;;;;;;;;;;;;;;;;5068820;28;20647;-80
2024/01/03 13:32:39;;;;;;;;;;;;;;;;;;5069464;28;20282;-80
2024/01/03 13:35:05;;;;;;;;;;;;;;;;;;5068942;28;19913;-80
2024/01/03 13:37:31;;;;;;;;;;;;;;;;;;5069188;28;19908;-80
2024/01/03 13:39:57;;;;;;;;;;;;;;;;;;5069285;28;19908;-79
2024/01/03 13:42:23;;;;;;;;;;;;;;;;;;5069047;28;19912;-79
2024/01/03 13:44:49;;;;;;;;;;;;;;;;;;5068806;28;20031;-80
2024/01/03 13:47:14;;;;;;;;;;;;;;;;;;5068492;28;19913;-79
2024/01/03 13:49:40;;;;;;;;;;;;;;;;;;5068707;28;19947;-80
2024/01/03 13:52:06;;;;;;;;;;;;;;;;;;5068886;28;19908;-78
2024/01/03 13:54:32;;;;;;;;;;;;;;;;;;5069237;28;20363;-79
2024/01/03 13:56:58;;;;;;;;;;;;;;;;;;5067088;28;19912;-79
2024/01/03 13:59:24;;;;;;;;;;;;;;;;;;5062470;28;19924;-79
2024/01/03 14:01:51;;;;;;;;;;;;;;;;;;5068408;28;20097;-80
2024/01/03 14:04:16;;;;;;;;;;;;;;;;;;5068263;28;19927;-79
2024/01/03 14:06:42;;;;;;;;;;;;;;;;;;5064768;28;20339;-79
2024/01/03 14:09:08;;;;;;;;;;;;;;;;;;5070326;28;20604;-79
2024/01/03 14:11:34;;;;;;;;;;;;;;;;;;5069786;28;19916;-80
2024/01/03 14:14:00;;;;;;;;;;;;;;;;;;5068168;28;20322;-80
2024/01/03 14:16:26;;;;;;;;;;;;;;;;;;5079434;28;19945;-80
2024/01/03 14:18:54;;;;;;;;;;;;;;;;;;5070143;28;19919;-80
2024/01/03 14:21:19;;;;;;;;;;;;;;;;;;5075400;28;19947;-79
2024/01/03 14:23:45;;;;;;;;;;;;;;;;;;5082540;28;19962;-79
2024/01/03 14:26:11;;;;;;;;;;;;;;;;;;5068646;28;19912;-79
2024/01/03 14:28:38;;;;;;;;;;;;;;;;;;5070905;28;19966;-80
2024/01/03 14:31:04;;;;;;;;;;;;;;;;;;5072365;28;19912;-80
2024/01/03 14:33:30;;;;;;;;;;;;;;;;;;5073791;28;19920;-79
2024/01/03 14:35:55;;;;;;;;;;;;;;;;;;5071452;28;20339;-79
2024/01/03 14:38:21;;;;;;;;;;;;;;;;;;5067830;28;20109;-80
2024/01/03 14:40:49;;;;;;;;;;;;;;;;;;5073277;28;19924;-79
2024/01/03 14:43:34;;;;;;;;;;;;;;;;;;5075703;28;19916;-79
2024/01/03 14:46:00;;;;;;;;;;;;;;;;;;5069725;28;19999;-79
2024/01/03 14:48:25;;;;;;;;;;;;;;;;;;5067746;28;20134;-78
2024/01/03 14:50:51;;;;;;;;;;;;;;;;;;5076914;28;19947;-78
2024/01/03 14:53:17;;;;;;;;;;;;;;;;;;5070951;28;20351;-78
2024/01/03 14:55:43;;;;;;;;;;;;;;;;;;5065797;28;20298;-78
2024/01/03 14:58:09;;;;;;;;;;;;;;;;;;5067308;28;19912;-78
2024/01/03 15:00:35;;;;;;;;;;;;;;;;;;5071058;28;19920;-78
2024/01/03 15:03:01;;;;;;;;;;;;;;;;;;5068382;28;19944;-78
2024/01/03 15:05:26;;;;;;;;;;;;;;;;;;5076383;28;20278;-77
2024/01/03 15:07:54;;;;;;;;;;;;;;;;;;5077578;28;19920;-77
2024/01/03 15:10:20;;;;;;;;;;;;;;;;;;5072223;28;20255;-78
2024/01/03 15:12:46;;;;;;;;;;;;;;;;;;5071701;28;19954;-78
2024/01/03 15:15:12;;;;;;;;;;;;;;;;;;5076903;28;19969;-79
2024/01/03 15:17:38;;;;;;;;;;;;;;;;;;5074724;28;19920;-78
2024/01/03 15:20:05;;;;;;;;;;;;;;;;;;5069556;28;19954;-79
2024/01/03 15:22:30;;;;;;;;;;;;;;;;;;5080848;28;19913;-78
2024/01/03 15:24:57;;;;;;;;;;;;;;;;;;5076701;28;19921;-78
2024/01/03 15:27:23;;;;;;;;;;;;;;;;;;5067915;28;20367;-78
2024/01/03 15:29:49;;;;;;;;;;;;;;;;;;5081035;28;19916;-78
2024/01/03 15:32:17;;;;;;;;;;;;;;;;;;5078689;28;19916;-78
2024/01/03 15:34:43;;;;;;;;;;;;;;;;;;5079139;28;19951;-78
2024/01/03 15:37:10;;;;;;;;;;;;;;;;;;5073179;28;20258;-78
2024/01/03 15:39:36;;;;;;;;;;;;;;;;;;5065288;28;20264;-78
2024/01/03 15:42:06;;;;;;;;;;;;;;;;;;5077855;28;19958;-80
2024/01/03 15:44:32;;;;;;;;;;;;;;;;;;5076998;28;19940;-79
2024/01/03 15:46:58;;;;;;;;;;;;;;;;;;5072495;28;19926;-78
2024/01/03 15:49:24;;;;;;;;;;;;;;;;;;5078900;28;19920;-78
2024/01/03 15:51:50;;;;;;;;;;;;;;;;;;5078430;28;20311;-78
2024/01/03 15:54:17;;;;;;;;;;;;;;;;;;5075528;28;19927;-78
2024/01/03 15:56:42;;;;;;;;;;;;;;;;;;5073855;28;20000;-78
2024/01/03 15:59:08;;;;;;;;;;;;;;;;;;5078621;28;20184;-78
2024/01/03 16:01:34;;;;;;;;;;;;;;;;;;5071542;28;19917;-78
2024/01/03 16:04:00;;;;;;;;;;;;;;;;;;5072006;28;19955;-78
2024/01/03 16:06:26;;;;;;;;;;;;;;;;;;5082292;28;19908;-78
2024/01/03 16:08:52;;;;;;;;;;;;;;;;;;5081918;28;20019;-77
2024/01/03 16:11:18;;;;;;;;;;;;;;;;;;5073711;28;20470;-78
2024/01/03 16:13:43;;;;;;;;;;;;;;;;;;5081045;28;19943;-78
2024/01/03 16:16:09;;;;;;;;;;;;;;;;;;5077916;28;19927;-79
2024/01/03 16:18:35;;;;;;;;;;;;;;;;;;5064125;28;19920;-77
2024/01/03 16:21:01;;;;;;;;;;;;;;;;;;5076807;28;19981;-76
2024/01/03 16:23:27;;;;;;;;;;;;;;;;;;5068681;28;20374;-81
2024/01/03 16:25:53;;;;;;;;;;;;;;;;;;5071075;28;19978;-78
2024/01/03 16:28:19;;;;;;;;;;;;;;;;;;5072127;28;19921;-82
2024/01/03 16:30:45;;;;;;;;;;;;;;;;;;5068299;28;20011;-80
2024/01/03 16:33:11;;;;;;;;;;;;;;;;;;5076932;28;20240;-81
2024/01/03 16:35:37;;;;;;;;;;;;;;;;;;5072150;28;19916;-82
2024/01/03 16:38:05;;;;;;;;;;;;;;;;;;5063819;28;20015;-82